sensor_id;sensor_type;location;lat;lon;timestamp;temperature;humidity
20504;DHT22;10410;51.046;6.980;2023-05-16T00:01:06;11.00;99.90
20504;DHT22;10410;51.046;6.980;2023-05-16T00:08:08;10.90;99.90
20504;DHT22;10410;51.046;6.980;2023-05-16T00:15:10;10.70;99.90
20504;DHT22;10410;51.046;6.980;2023-05-16T00:22:13;10.70;99.90
20504;DHT22;10410;51.046;6.980;2023-05-16T00:29:14;10.60;99.90
20504;DHT22;10410;51.046;6.980;2023-05-16T00:36:14;10.60;99.90
20504;DHT22;10410;51.046;6.980;2023-05-16T00:43:15;10.60;99.90
20504;DHT22;10410;51.046;6.980;2023-05-16T00:50:16;10.60;99.90
20504;DHT22;10410;51.046;6.980;2023-05-16T00:57:17;10.60;99.90
20504;DHT22;10410;51.046;6.980;2023-05-16T01:04:18;10.50;99.90
20504;DHT22;10410;51.046;6.980;2023-05-16T01:18:41;10.30;99.90
20504;DHT22;10410;51.046;6.980;2023-05-16T01:33:12;10.20;99.90
20504;DHT22;10410;51.046;6.980;2023-05-16T01:40:43;10.10;99.90
20504;DHT22;10410;51.046;6.980;2023-05-16T01:47:40;10.10;99.90
20504;DHT22;10410;51.046;6.980;2023-05-16T01:54:47;10.00;99.90
20504;DHT22;10410;51.046;6.980;2023-05-16T02:01:47;9.90;99.90
20504;DHT22;10410;51.046;6.980;2023-05-16T02:08:48;9.80;99.90
20504;DHT22;10410;51.046;6.980;2023-05-16T02:15:50;9.60;99.90
20504;DHT22;10410;51.046;6.980;2023-05-16T02:22:51;9.50;99.90
20504;DHT22;10410;51.046;6.980;2023-05-16T02:29:51;9.40;99.90
20504;DHT22;10410;51.046;6.980;2023-05-16T02:36:52;9.30;99.90
20504;DHT22;10410;51.046;6.980;2023-05-16T02:43:54;9.10;99.90
20504;DHT22;10410;51.046;6.980;2023-05-16T02:50:55;9.00;99.90
20504;DHT22;10410;51.046;6.980;2023-05-16T02:57:55;9.00;99.90
20504;DHT22;10410;51.046;6.980;2023-05-16T03:04:56;8.90;99.90
20504;DHT22;10410;51.046;6.980;2023-05-16T03:11:57;8.90;99.90
20504;DHT22;10410;51.046;6.980;2023-05-16T03:18:58;8.80;99.90
20504;DHT22;10410;51.046;6.980;2023-05-16T03:25:59;8.80;99.90
20504;DHT22;10410;51.046;6.980;2023-05-16T03:32:59;8.80;99.90
20504;DHT22;10410;51.046;6.980;2023-05-16T03:40:00;8.80;99.90
20504;DHT22;10410;51.046;6.980;2023-05-16T03:47:00;8.70;99.90
20504;DHT22;10410;51.046;6.980;2023-05-16T03:54:01;8.70;99.90
20504;DHT22;10410;51.046;6.980;2023-05-16T04:01:01;8.70;99.90
20504;DHT22;10410;51.046;6.980;2023-05-16T04:08:01;8.60;99.90
20504;DHT22;10410;51.046;6.980;2023-05-16T04:15:03;8.50;99.90
20504;DHT22;10410;51.046;6.980;2023-05-16T04:22:03;8.50;99.90
20504;DHT22;10410;51.046;6.980;2023-05-16T04:29:04;8.50;99.90
20504;DHT22;10410;51.046;6.980;2023-05-16T04:36:05;8.50;99.90
20504;DHT22;10410;51.046;6.980;2023-05-16T04:43:06;8.40;99.90
20504;DHT22;10410;51.046;6.980;2023-05-16T04:50:07;8.40;99.90
20504;DHT22;10410;51.046;6.980;2023-05-16T04:57:08;8.30;99.90
20504;DHT22;10410;51.046;6.980;2023-05-16T05:04:08;8.30;99.90
20504;DHT22;10410;51.046;6.980;2023-05-16T05:11:08;8.20;99.90
20504;DHT22;10410;51.046;6.980;2023-05-16T05:18:09;8.10;99.90
20504;DHT22;10410;51.046;6.980;2023-05-16T05:25:10;8.20;99.90
20504;DHT22;10410;51.046;6.980;2023-05-16T05:32:10;8.20;99.90
20504;DHT22;10410;51.046;6.980;2023-05-16T05:39:11;8.40;99.90
20504;DHT22;10410;51.046;6.980;2023-05-16T05:46:12;8.60;99.90
20504;DHT22;10410;51.046;6.980;2023-05-16T05:53:12;8.80;99.90
20504;DHT22;10410;51.046;6.980;2023-05-16T06:00:13;8.90;99.90
20504;DHT22;10410;51.046;6.980;2023-05-16T06:07:13;9.10;99.90
20504;DHT22;10410;51.046;6.980;2023-05-16T06:14:15;9.20;99.90
20504;DHT22;10410;51.046;6.980;2023-05-16T06:21:16;9.20;99.90
20504;DHT22;10410;51.046;6.980;2023-05-16T06:28:16;9.20;99.90
20504;DHT22;10410;51.046;6.980;2023-05-16T06:35:17;9.20;99.90
20504;DHT22;10410;51.046;6.980;2023-05-16T06:42:18;9.30;99.90
20504;DHT22;10410;51.046;6.980;2023-05-16T06:49:19;9.30;99.90
20504;DHT22;10410;51.046;6.980;2023-05-16T06:56:20;9.40;99.90
20504;DHT22;10410;51.046;6.980;2023-05-16T07:03:20;9.60;99.90
20504;DHT22;10410;51.046;6.980;2023-05-16T07:10:21;9.70;99.90
20504;DHT22;10410;51.046;6.980;2023-05-16T07:17:22;9.60;99.90
20504;DHT22;10410;51.046;6.980;2023-05-16T07:24:22;9.50;99.90
20504;DHT22;10410;51.046;6.980;2023-05-16T07:31:22;9.50;99.90
20504;DHT22;10410;51.046;6.980;2023-05-16T07:38:23;9.50;99.90
20504;DHT22;10410;51.046;6.980;2023-05-16T07:45:24;9.60;99.90
20504;DHT22;10410;51.046;6.980;2023-05-16T07:52:24;9.80;99.90
20504;DHT22;10410;51.046;6.980;2023-05-16T07:59:25;10.20;99.90
20504;DHT22;10410;51.046;6.980;2023-05-16T08:06:26;10.60;99.90
20504;DHT22;10410;51.046;6.980;2023-05-16T08:13:26;10.70;99.90
20504;DHT22;10410;51.046;6.980;2023-05-16T08:20:26;10.80;99.90
20504;DHT22;10410;51.046;6.980;2023-05-16T08:27:27;11.00;99.90
20504;DHT22;10410;51.046;6.980;2023-05-16T08:34:30;11.30;99.90
20504;DHT22;10410;51.046;6.980;2023-05-16T08:41:31;11.60;99.90
20504;DHT22;10410;51.046;6.980;2023-05-16T08:48:32;11.80;99.90
20504;DHT22;10410;51.046;6.980;2023-05-16T08:55:34;12.00;99.90
20504;DHT22;10410;51.046;6.980;2023-05-16T09:02:35;12.40;99.90
20504;DHT22;10410;51.046;6.980;2023-05-16T09:09:35;12.60;99.90
20504;DHT22;10410;51.046;6.980;2023-05-16T09:16:36;12.40;99.90
20504;DHT22;10410;51.046;6.980;2023-05-16T09:23:37;12.20;99.90
20504;DHT22;10410;51.046;6.980;2023-05-16T09:30:37;11.90;99.90
20504;DHT22;10410;51.046;6.980;2023-05-16T09:37:43;11.80;99.90
20504;DHT22;10410;51.046;6.980;2023-05-16T09:44:52;11.80;99.90
20504;DHT22;10410;51.046;6.980;2023-05-16T09:51:53;12.00;99.90
20504;DHT22;10410;51.046;6.980;2023-05-16T09:58:53;12.30;99.90
20504;DHT22;10410;51.046;6.980;2023-05-16T10:05:54;12.70;99.90
20504;DHT22;10410;51.046;6.980;2023-05-16T10:12:57;13.10;99.90
20504;DHT22;10410;51.046;6.980;2023-05-16T10:20:01;13.10;99.90
20504;DHT22;10410;51.046;6.980;2023-05-16T10:27:05;13.30;99.90
20504;DHT22;10410;51.046;6.980;2023-05-16T10:34:05;13.60;99.90
20504;DHT22;10410;51.046;6.980;2023-05-16T10:41:06;13.80;99.90
20504;DHT22;10410;51.046;6.980;2023-05-16T10:48:07;13.80;99.90
20504;DHT22;10410;51.046;6.980;2023-05-16T10:55:11;13.90;99.90
20504;DHT22;10410;51.046;6.980;2023-05-16T11:02:29;14.20;99.90
20504;DHT22;10410;51.046;6.980;2023-05-16T11:09:31;14.00;99.90
20504;DHT22;10410;51.046;6.980;2023-05-16T11:16:33;13.70;99.90
20504;DHT22;10410;51.046;6.980;2023-05-16T11:23:34;13.70;99.90
20504;DHT22;10410;51.046;6.980;2023-05-16T11:30:34;13.90;99.90
20504;DHT22;10410;51.046;6.980;2023-05-16T11:37:35;13.90;99.90
20504;DHT22;10410;51.046;6.980;2023-05-16T11:44:35;13.60;99.90
20504;DHT22;10410;51.046;6.980;2023-05-16T11:51:40;13.40;99.90
20504;DHT22;10410;51.046;6.980;2023-05-16T11:58:41;13.60;99.90
20504;DHT22;10410;51.046;6.980;2023-05-16T12:05:49;13.80;99.90
20504;DHT22;10410;51.046;6.980;2023-05-16T12:12:52;13.90;99.90
20504;DHT22;10410;51.046;6.980;2023-05-16T12:19:53;14.00;99.90
20504;DHT22;10410;51.046;6.980;2023-05-16T12:26:56;14.20;99.90
20504;DHT22;10410;51.046;6.980;2023-05-16T12:33:57;14.60;99.90
20504;DHT22;10410;51.046;6.980;2023-05-16T12:40:57;14.70;99.90
20504;DHT22;10410;51.046;6.980;2023-05-16T12:48:04;14.30;99.90
20504;DHT22;10410;51.046;6.980;2023-05-16T12:55:06;13.80;99.90
20504;DHT22;10410;51.046;6.980;2023-05-16T13:02:09;13.70;99.90
20504;DHT22;10410;51.046;6.980;2023-05-16T13:09:09;13.80;99.90
20504;DHT22;10410;51.046;6.980;2023-05-16T13:16:10;14.40;99.90
20504;DHT22;10410;51.046;6.980;2023-05-16T13:23:11;15.10;99.90
20504;DHT22;10410;51.046;6.980;2023-05-16T13:30:11;15.60;99.90
20504;DHT22;10410;51.046;6.980;2023-05-16T13:37:12;16.00;99.90
20504;DHT22;10410;51.046;6.980;2023-05-16T13:44:12;16.30;99.90
20504;DHT22;10410;51.046;6.980;2023-05-16T13:51:13;16.50;99.90
20504;DHT22;10410;51.046;6.980;2023-05-16T13:58:13;16.90;99.90
20504;DHT22;10410;51.046;6.980;2023-05-16T14:05:14;16.60;98.40
20504;DHT22;10410;51.046;6.980;2023-05-16T14:12:14;16.80;97.20
20504;DHT22;10410;51.046;6.980;2023-05-16T14:19:14;17.30;94.40
20504;DHT22;10410;51.046;6.980;2023-05-16T14:26:18;17.40;94.30
20504;DHT22;10410;51.046;6.980;2023-05-16T14:33:24;17.40;92.50
20504;DHT22;10410;51.046;6.980;2023-05-16T14:40:25;16.80;91.70
20504;DHT22;10410;51.046;6.980;2023-05-16T14:47:25;16.30;92.00
20504;DHT22;10410;51.046;6.980;2023-05-16T14:54:26;15.90;93.10
20504;DHT22;10410;51.046;6.980;2023-05-16T15:01:27;15.50;94.10
20504;DHT22;10410;51.046;6.980;2023-05-16T15:08:27;15.30;95.80
20504;DHT22;10410;51.046;6.980;2023-05-16T15:15:27;15.80;95.30
20504;DHT22;10410;51.046;6.980;2023-05-16T15:22:28;15.80;95.60
20504;DHT22;10410;51.046;6.980;2023-05-16T15:29:30;15.60;95.70
20504;DHT22;10410;51.046;6.980;2023-05-16T15:36:33;15.30;94.80
20504;DHT22;10410;51.046;6.980;2023-05-16T15:43:34;15.00;95.60
20504;DHT22;10410;51.046;6.980;2023-05-16T15:50:34;15.00;96.50
20504;DHT22;10410;51.046;6.980;2023-05-16T15:57:35;15.20;96.40
20504;DHT22;10410;51.046;6.980;2023-05-16T16:04:36;15.10;96.20
20504;DHT22;10410;51.046;6.980;2023-05-16T16:11:37;14.70;96.30
20504;DHT22;10410;51.046;6.980;2023-05-16T16:18:38;14.60;96.40
20504;DHT22;10410;51.046;6.980;2023-05-16T16:25:38;14.60;96.70
20504;DHT22;10410;51.046;6.980;2023-05-16T16:32:38;14.60;97.50
20504;DHT22;10410;51.046;6.980;2023-05-16T16:39:39;14.70;97.60
20504;DHT22;10410;51.046;6.980;2023-05-16T16:46:39;14.60;98.20
20504;DHT22;10410;51.046;6.980;2023-05-16T16:53:40;14.40;98.80
20504;DHT22;10410;51.046;6.980;2023-05-16T17:00:41;14.10;99.30
20504;DHT22;10410;51.046;6.980;2023-05-16T17:07:42;14.00;99.90
20504;DHT22;10410;51.046;6.980;2023-05-16T17:14:47;13.80;99.90
20504;DHT22;10410;51.046;6.980;2023-05-16T17:21:48;13.60;99.90
20504;DHT22;10410;51.046;6.980;2023-05-16T17:28:49;13.40;99.90
20504;DHT22;10410;51.046;6.980;2023-05-16T17:35:49;13.20;99.90
20504;DHT22;10410;51.046;6.980;2023-05-16T17:42:50;13.20;99.90
20504;DHT22;10410;51.046;6.980;2023-05-16T17:49:50;13.10;99.90
20504;DHT22;10410;51.046;6.980;2023-05-16T17:56:51;13.00;99.90
20504;DHT22;10410;51.046;6.980;2023-05-16T18:03:52;13.00;99.90
20504;DHT22;10410;51.046;6.980;2023-05-16T18:10:53;12.90;99.90
20504;DHT22;10410;51.046;6.980;2023-05-16T18:17:53;12.90;99.90
20504;DHT22;10410;51.046;6.980;2023-05-16T18:24:54;12.80;99.90
20504;DHT22;10410;51.046;6.980;2023-05-16T18:31:55;12.80;99.90
20504;DHT22;10410;51.046;6.980;2023-05-16T18:38:56;12.70;99.90
20504;DHT22;10410;51.046;6.980;2023-05-16T18:45:56;12.60;99.90
20504;DHT22;10410;51.046;6.980;2023-05-16T18:52:56;12.50;99.90
20504;DHT22;10410;51.046;6.980;2023-05-16T18:59:57;12.50;99.90
20504;DHT22;10410;51.046;6.980;2023-05-16T19:06:57;12.40;99.90
20504;DHT22;10410;51.046;6.980;2023-05-16T19:13:58;12.40;99.90
20504;DHT22;10410;51.046;6.980;2023-05-16T19:20:58;12.40;99.90
20504;DHT22;10410;51.046;6.980;2023-05-16T19:27:58;12.40;99.90
20504;DHT22;10410;51.046;6.980;2023-05-16T19:34:59;12.40;99.90
20504;DHT22;10410;51.046;6.980;2023-05-16T19:41:59;12.40;99.90
20504;DHT22;10410;51.046;6.980;2023-05-16T19:49:06;12.30;99.90
20504;DHT22;10410;51.046;6.980;2023-05-16T19:56:07;12.10;99.90
20504;DHT22;10410;51.046;6.980;2023-05-16T20:03:08;12.00;99.90
20504;DHT22;10410;51.046;6.980;2023-05-16T20:10:09;12.00;99.90
20504;DHT22;10410;51.046;6.980;2023-05-16T20:17:09;12.00;99.90
20504;DHT22;10410;51.046;6.980;2023-05-16T20:24:10;12.00;99.90
20504;DHT22;10410;51.046;6.980;2023-05-16T20:31:10;11.90;99.90
20504;DHT22;10410;51.046;6.980;2023-05-16T20:38:11;11.90;99.90
20504;DHT22;10410;51.046;6.980;2023-05-16T20:45:11;11.80;99.90
20504;DHT22;10410;51.046;6.980;2023-05-16T20:52:11;11.80;99.90
20504;DHT22;10410;51.046;6.980;2023-05-16T20:59:12;11.70;99.90
20504;DHT22;10410;51.046;6.980;2023-05-16T21:06:12;11.60;99.90
20504;DHT22;10410;51.046;6.980;2023-05-16T21:13:13;11.50;99.90
20504;DHT22;10410;51.046;6.980;2023-05-16T21:20:13;11.40;99.90
20504;DHT22;10410;51.046;6.980;2023-05-16T21:27:14;11.30;99.90
20504;DHT22;10410;51.046;6.980;2023-05-16T21:34:16;11.20;99.90
20504;DHT22;10410;51.046;6.980;2023-05-16T21:41:17;11.20;99.90
20504;DHT22;10410;51.046;6.980;2023-05-16T21:48:18;11.10;99.90
20504;DHT22;10410;51.046;6.980;2023-05-16T21:55:19;11.00;99.90
20504;DHT22;10410;51.046;6.980;2023-05-16T22:02:19;10.90;99.90
20504;DHT22;10410;51.046;6.980;2023-05-16T22:09:22;10.90;99.90
20504;DHT22;10410;51.046;6.980;2023-05-16T22:16:22;10.80;99.90
20504;DHT22;10410;51.046;6.980;2023-05-16T22:23:23;10.60;99.90
20504;DHT22;10410;51.046;6.980;2023-05-16T22:30:23;10.50;99.90
20504;DHT22;10410;51.046;6.980;2023-05-16T22:37:24;10.30;99.90
20504;DHT22;10410;51.046;6.980;2023-05-16T22:44:24;10.20;99.90
20504;DHT22;10410;51.046;6.980;2023-05-16T22:51:24;10.10;99.90
20504;DHT22;10410;51.046;6.980;2023-05-16T22:58:25;9.90;99.90
20504;DHT22;10410;51.046;6.980;2023-05-16T23:05:25;9.80;99.90
20504;DHT22;10410;51.046;6.980;2023-05-16T23:12:26;9.60;99.90
20504;DHT22;10410;51.046;6.980;2023-05-16T23:19:26;9.50;99.90
20504;DHT22;10410;51.046;6.980;2023-05-16T23:26:27;9.40;99.90
20504;DHT22;10410;51.046;6.980;2023-05-16T23:33:27;9.30;99.90
20504;DHT22;10410;51.046;6.980;2023-05-16T23:40:28;9.10;99.90
20504;DHT22;10410;51.046;6.980;2023-05-16T23:47:28;9.00;99.90
20504;DHT22;10410;51.046;6.980;2023-05-16T23:54:29;8.90;99.90
